createdAt,value
2022-10-28T00:00:02.998Z,11.9
2022-10-28T00:20:02.956Z,11.8
2022-10-28T00:40:02.404Z,11.5
2022-10-28T01:00:03.077Z,11.4
2022-10-28T01:20:02.758Z,11.6
2022-10-28T01:40:02.201Z,11.6
2022-10-28T02:00:02.551Z,11.6
2022-10-28T02:20:03.045Z,11.7
2022-10-28T02:40:02.641Z,11.6
2022-10-28T03:00:03.037Z,11.7
2022-10-28T03:20:02.682Z,11.6
2022-10-28T03:40:03.387Z,11.3
2022-10-28T04:00:02.953Z,11.1
2022-10-28T04:20:02.782Z,10.8
2022-10-28T04:40:02.292Z,10.5
2022-10-28T05:00:02.587Z,10.3
2022-10-28T05:20:02.802Z,10.1
2022-10-28T05:40:02.158Z,10
2022-10-28T06:00:02.651Z,9.8
2022-10-28T06:20:00.974Z,9.8
2022-10-28T06:40:01.526Z,9.9
2022-10-28T07:00:02.640Z,10.3
2022-10-28T07:20:02.260Z,10.6
2022-10-28T07:40:02.664Z,11.2
2022-10-28T08:00:03.196Z,12.1
2022-10-28T08:20:03.024Z,13.4
2022-10-28T08:40:02.462Z,14.5
2022-10-28T09:00:02.940Z,15.8
2022-10-28T09:20:02.402Z,16.8
2022-10-28T09:40:03.093Z,17.6
2022-10-28T10:00:02.552Z,19
2022-10-28T10:20:02.635Z,20.1
2022-10-28T10:40:02.653Z,20.7
2022-10-28T11:00:03.036Z,21.1
2022-10-28T11:20:02.808Z,21.8
2022-10-28T11:40:02.218Z,22.4
2022-10-28T12:00:02.850Z,22.7
2022-10-28T12:20:02.673Z,22.8
2022-10-28T12:40:03.151Z,22.6
2022-10-28T13:00:02.777Z,22.3
2022-10-28T13:20:02.567Z,22.3
2022-10-28T13:40:02.935Z,21.8
2022-10-28T14:00:02.473Z,21.6
2022-10-28T14:20:02.301Z,21.6
2022-10-28T14:40:02.892Z,21.4
2022-10-28T15:00:02.404Z,21.2
2022-10-28T15:20:02.632Z,20.9
2022-10-28T15:40:05.335Z,20.4
2022-10-28T16:00:02.549Z,20.1
2022-10-28T16:20:02.611Z,19.6
2022-10-28T16:40:02.377Z,18.8
2022-10-28T17:00:02.639Z,18.3
2022-10-28T17:20:02.471Z,17.9
2022-10-28T17:40:02.739Z,17.3
2022-10-28T18:00:04.136Z,16.7
2022-10-28T18:20:02.539Z,16.5
2022-10-28T18:40:02.792Z,16.4
2022-10-28T19:00:18.615Z,16.4
2022-10-28T19:20:03.437Z,16.2
2022-10-28T19:40:02.713Z,16
2022-10-28T20:00:03.017Z,15.7
2022-10-28T20:20:02.343Z,15.5
2022-10-28T20:40:04.500Z,15.1
2022-10-28T21:00:03.030Z,14.7
2022-10-28T21:20:02.473Z,14.4
2022-10-28T21:40:02.979Z,14
2022-10-28T22:00:02.366Z,13.8
2022-10-28T22:20:02.889Z,13.6
2022-10-28T22:40:02.228Z,13.6
2022-10-28T23:00:03.580Z,14.1
2022-10-28T23:20:02.167Z,14.2
2022-10-28T23:40:02.737Z,14.2
